sensor_id;sensor_type;location;lat;lon;timestamp;pressure;altitude;pressure_sealevel;temperature;humidity
33414;BME280;60055;41.884;12.534;2023-12-07T00:01:32;100999.44;;;6.82;80.91
33414;BME280;60055;41.884;12.534;2023-12-07T00:04:00;100998.66;;;6.75;81.93
33414;BME280;60055;41.884;12.534;2023-12-07T00:06:25;101002.81;;;6.87;80.11
33414;BME280;60055;41.884;12.534;2023-12-07T00:08:51;100998.50;;;6.84;81.24
33414;BME280;60055;41.884;12.534;2023-12-07T00:11:17;100993.00;;;6.99;81.28
33414;BME280;60055;41.884;12.534;2023-12-07T00:13:42;100994.13;;;6.83;79.62
33414;BME280;60055;41.884;12.534;2023-12-07T00:16:08;101000.53;;;6.67;79.79
33414;BME280;60055;41.884;12.534;2023-12-07T00:18:33;100995.53;;;6.52;80.13
33414;BME280;60055;41.884;12.534;2023-12-07T00:20:59;100997.72;;;6.20;81.37
33414;BME280;60055;41.884;12.534;2023-12-07T00:23:24;100993.91;;;6.43;81.58
33414;BME280;60055;41.884;12.534;2023-12-07T00:25:50;101000.09;;;6.38;80.78
33414;BME280;60055;41.884;12.534;2023-12-07T00:28:15;100993.25;;;6.28;80.84
33414;BME280;60055;41.884;12.534;2023-12-07T00:30:41;100997.69;;;6.24;81.20
33414;BME280;60055;41.884;12.534;2023-12-07T00:33:07;100997.00;;;6.11;81.34
33414;BME280;60055;41.884;12.534;2023-12-07T00:35:34;100998.75;;;6.09;81.92
33414;BME280;60055;41.884;12.534;2023-12-07T00:37:59;100998.09;;;5.92;82.26
33414;BME280;60055;41.884;12.534;2023-12-07T00:40:25;101007.78;;;5.87;82.12
33414;BME280;60055;41.884;12.534;2023-12-07T00:42:50;101008.63;;;5.89;81.89
33414;BME280;60055;41.884;12.534;2023-12-07T00:45:16;101004.94;;;6.04;82.38
33414;BME280;60055;41.884;12.534;2023-12-07T00:47:41;101009.09;;;6.22;82.21
33414;BME280;60055;41.884;12.534;2023-12-07T00:50:07;101016.03;;;6.24;81.46
33414;BME280;60055;41.884;12.534;2023-12-07T00:52:33;101011.03;;;6.06;81.05
33414;BME280;60055;41.884;12.534;2023-12-07T00:54:58;101021.47;;;6.10;81.33
33414;BME280;60055;41.884;12.534;2023-12-07T00:57:24;101020.84;;;5.90;81.46
33414;BME280;60055;41.884;12.534;2023-12-07T00:59:49;101016.53;;;5.82;81.56
33414;BME280;60055;41.884;12.534;2023-12-07T01:02:15;101020.09;;;5.76;82.06
33414;BME280;60055;41.884;12.534;2023-12-07T01:04:40;101020.09;;;5.78;81.79
33414;BME280;60055;41.884;12.534;2023-12-07T01:07:05;101024.31;;;5.92;81.95
33414;BME280;60055;41.884;12.534;2023-12-07T01:09:31;101028.63;;;5.98;81.75
33414;BME280;60055;41.884;12.534;2023-12-07T01:11:56;101022.38;;;6.06;80.76
33414;BME280;60055;41.884;12.534;2023-12-07T01:14:23;101018.03;;;6.05;80.41
33414;BME280;60055;41.884;12.534;2023-12-07T01:16:49;101030.41;;;5.94;81.55
33414;BME280;60055;41.884;12.534;2023-12-07T01:19:14;101033.78;;;6.02;81.21
33414;BME280;60055;41.884;12.534;2023-12-07T01:21:41;101026.75;;;6.07;79.93
33414;BME280;60055;41.884;12.534;2023-12-07T01:24:07;101029.47;;;6.01;80.13
33414;BME280;60055;41.884;12.534;2023-12-07T01:26:32;101034.63;;;6.07;80.05
33414;BME280;60055;41.884;12.534;2023-12-07T01:28:58;101029.16;;;6.23;80.50
33414;BME280;60055;41.884;12.534;2023-12-07T01:31:24;101033.69;;;6.11;79.65
33414;BME280;60055;41.884;12.534;2023-12-07T01:33:49;101026.38;;;6.33;80.66
33414;BME280;60055;41.884;12.534;2023-12-07T01:36:14;101028.88;;;6.42;79.94
33414;BME280;60055;41.884;12.534;2023-12-07T01:38:40;101020.94;;;6.48;78.68
33414;BME280;60055;41.884;12.534;2023-12-07T01:41:05;101030.22;;;6.09;79.16
33414;BME280;60055;41.884;12.534;2023-12-07T01:43:31;101030.41;;;5.94;79.81
33414;BME280;60055;41.884;12.534;2023-12-07T01:45:57;101026.13;;;5.87;80.33
33414;BME280;60055;41.884;12.534;2023-12-07T01:48:24;101025.28;;;5.82;81.02
33414;BME280;60055;41.884;12.534;2023-12-07T01:50:52;101023.47;;;5.89;80.98
33414;BME280;60055;41.884;12.534;2023-12-07T01:53:21;101033.78;;;6.04;80.21
33414;BME280;60055;41.884;12.534;2023-12-07T01:55:47;101037.56;;;5.76;81.42
33414;BME280;60055;41.884;12.534;2023-12-07T01:58:14;101039.28;;;5.78;81.61
33414;BME280;60055;41.884;12.534;2023-12-07T02:00:39;101039.31;;;5.77;81.92
33414;BME280;60055;41.884;12.534;2023-12-07T02:03:05;101032.16;;;5.92;82.01
33414;BME280;60055;41.884;12.534;2023-12-07T02:05:31;101032.16;;;5.92;81.60
33414;BME280;60055;41.884;12.534;2023-12-07T02:07:57;101032.09;;;6.00;80.92
33414;BME280;60055;41.884;12.534;2023-12-07T02:10:24;101026.13;;;5.84;83.35
33414;BME280;60055;41.884;12.534;2023-12-07T02:12:49;101033.88;;;5.96;81.73
33414;BME280;60055;41.884;12.534;2023-12-07T02:15:15;101025.59;;;6.27;81.16
33414;BME280;60055;41.884;12.534;2023-12-07T02:18:01;101027.13;;;6.43;80.91
33414;BME280;60055;41.884;12.534;2023-12-07T02:23:01;101035.72;;;6.54;79.43
33414;BME280;60055;41.884;12.534;2023-12-07T02:25:32;101031.38;;;6.51;79.12
33414;BME280;60055;41.884;12.534;2023-12-07T02:28:00;101022.75;;;6.43;79.23
33414;BME280;60055;41.884;12.534;2023-12-07T02:30:26;101036.91;;;6.32;79.32
33414;BME280;60055;41.884;12.534;2023-12-07T02:32:51;101035.13;;;6.32;79.37
33414;BME280;60055;41.884;12.534;2023-12-07T02:35:17;101035.03;;;6.41;78.91
33414;BME280;60055;41.884;12.534;2023-12-07T02:37:49;101039.16;;;6.59;79.94
33414;BME280;60055;41.884;12.534;2023-12-07T02:40:18;101038.47;;;6.43;78.47
33414;BME280;60055;41.884;12.534;2023-12-07T02:42:44;101041.00;;;6.51;79.24
33414;BME280;60055;41.884;12.534;2023-12-07T02:45:10;101038.47;;;6.43;79.03
33414;BME280;60055;41.884;12.534;2023-12-07T02:47:37;101039.22;;;6.53;79.96
33414;BME280;60055;41.884;12.534;2023-12-07T02:50:05;101052.47;;;6.45;78.96
33414;BME280;60055;41.884;12.534;2023-12-07T02:52:31;101050.25;;;6.13;79.72
33414;BME280;60055;41.884;12.534;2023-12-07T02:54:57;101054.66;;;6.11;79.86
33414;BME280;60055;41.884;12.534;2023-12-07T02:57:22;101042.44;;;6.10;81.75
33414;BME280;60055;41.884;12.534;2023-12-07T02:59:48;101052.13;;;6.04;80.63
33414;BME280;60055;41.884;12.534;2023-12-07T03:02:13;101057.28;;;6.08;80.68
33414;BME280;60055;41.884;12.534;2023-12-07T03:04:39;101069.34;;;6.25;81.01
33414;BME280;60055;41.884;12.534;2023-12-07T03:07:04;101054.59;;;6.18;79.92
33414;BME280;60055;41.884;12.534;2023-12-07T03:09:30;101056.34;;;6.15;80.12
33414;BME280;60055;41.884;12.534;2023-12-07T03:11:55;101062.41;;;6.19;80.04
33414;BME280;60055;41.884;12.534;2023-12-07T03:14:20;101061.41;;;6.31;79.85
33414;BME280;60055;41.884;12.534;2023-12-07T03:16:46;101058.03;;;6.20;79.58
33414;BME280;60055;41.884;12.534;2023-12-07T03:19:11;101066.19;;;5.95;80.33
33414;BME280;60055;41.884;12.534;2023-12-07T03:21:40;101066.31;;;5.82;80.75
33414;BME280;60055;41.884;12.534;2023-12-07T03:24:07;101066.44;;;5.74;81.31
33414;BME280;60055;41.884;12.534;2023-12-07T03:26:33;101069.34;;;5.47;82.57
33414;BME280;60055;41.884;12.534;2023-12-07T03:28:59;101071.66;;;5.74;82.17
33414;BME280;60055;41.884;12.534;2023-12-07T03:31:24;101083.81;;;5.81;81.86
33414;BME280;60055;41.884;12.534;2023-12-07T03:33:49;101078.44;;;5.95;81.52
33414;BME280;60055;41.884;12.534;2023-12-07T03:36:15;101083.88;;;5.75;80.98
33414;BME280;60055;41.884;12.534;2023-12-07T03:38:40;101084.75;;;5.76;80.95
33414;BME280;60055;41.884;12.534;2023-12-07T03:41:06;101083.81;;;5.78;81.04
33414;BME280;60055;41.884;12.534;2023-12-07T03:43:31;101083.81;;;5.81;80.62
33414;BME280;60055;41.884;12.534;2023-12-07T03:45:57;101085.50;;;5.88;81.04
33414;BME280;60055;41.884;12.534;2023-12-07T03:48:22;101090.03;;;5.71;80.85
33414;BME280;60055;41.884;12.534;2023-12-07T03:50:47;101099.75;;;5.60;81.13
33414;BME280;60055;41.884;12.534;2023-12-07T03:53:13;101098.91;;;5.56;81.57
33414;BME280;60055;41.884;12.534;2023-12-07T03:55:38;101099.75;;;5.60;81.52
33414;BME280;60055;41.884;12.534;2023-12-07T03:58:04;101108.59;;;5.50;81.58
33414;BME280;60055;41.884;12.534;2023-12-07T04:00:31;101117.25;;;5.55;82.02
33414;BME280;60055;41.884;12.534;2023-12-07T04:02:57;101119.09;;;5.47;82.42
33414;BME280;60055;41.884;12.534;2023-12-07T04:05:22;101117.34;;;5.47;81.92
33414;BME280;60055;41.884;12.534;2023-12-07T04:07:48;101126.06;;;5.45;82.13
33414;BME280;60055;41.884;12.534;2023-12-07T04:10:13;101127.75;;;5.52;81.77
33414;BME280;60055;41.884;12.534;2023-12-07T04:12:39;101125.19;;;5.47;81.72
33414;BME280;60055;41.884;12.534;2023-12-07T04:15:05;101127.13;;;5.24;82.25
33414;BME280;60055;41.884;12.534;2023-12-07T04:17:31;101122.59;;;5.44;81.58
33414;BME280;60055;41.884;12.534;2023-12-07T04:19:56;101134.03;;;5.37;81.75
33414;BME280;60055;41.884;12.534;2023-12-07T04:22:23;101132.88;;;5.65;82.34
33414;BME280;60055;41.884;12.534;2023-12-07T04:24:48;101142.41;;;5.73;80.62
33414;BME280;60055;41.884;12.534;2023-12-07T04:27:13;101136.56;;;5.42;80.62
33414;BME280;60055;41.884;12.534;2023-12-07T04:29:39;101139.97;;;5.53;80.37
33414;BME280;60055;41.884;12.534;2023-12-07T04:32:07;101143.63;;;5.31;80.89
33414;BME280;60055;41.884;12.534;2023-12-07T04:34:32;101141.13;;;5.20;82.02
33414;BME280;60055;41.884;12.534;2023-12-07T04:36:57;101149.84;;;5.18;81.46
33414;BME280;60055;41.884;12.534;2023-12-07T04:39:23;101145.38;;;5.32;81.41
33414;BME280;60055;41.884;12.534;2023-12-07T04:41:48;101139.22;;;5.39;80.80
33414;BME280;60055;41.884;12.534;2023-12-07T04:44:14;101149.56;;;5.57;80.43
33414;BME280;60055;41.884;12.534;2023-12-07T04:46:41;101149.44;;;5.69;80.78
33414;BME280;60055;41.884;12.534;2023-12-07T04:49:07;101149.44;;;5.69;79.22
33414;BME280;60055;41.884;12.534;2023-12-07T04:51:32;101152.09;;;5.66;78.73
33414;BME280;60055;41.884;12.534;2023-12-07T04:53:58;101149.53;;;5.60;79.27
33414;BME280;60055;41.884;12.534;2023-12-07T04:56:23;101149.59;;;5.52;79.23
33414;BME280;60055;41.884;12.534;2023-12-07T04:58:49;101156.66;;;5.43;79.46
33414;BME280;60055;41.884;12.534;2023-12-07T05:01:14;101157.53;;;5.42;79.82
33414;BME280;60055;41.884;12.534;2023-12-07T05:03:39;101161.03;;;5.39;79.61
33414;BME280;60055;41.884;12.534;2023-12-07T05:06:05;101161.88;;;5.46;78.76
33414;BME280;60055;41.884;12.534;2023-12-07T05:08:30;101152.31;;;5.40;78.89
33414;BME280;60055;41.884;12.534;2023-12-07T05:10:57;101158.50;;;5.29;79.76
33414;BME280;60055;41.884;12.534;2023-12-07T05:13:23;101154.19;;;5.22;79.50
33414;BME280;60055;41.884;12.534;2023-12-07T05:15:48;101155.13;;;5.11;80.04
33414;BME280;60055;41.884;12.534;2023-12-07T05:18:13;101163.00;;;5.11;80.56
33414;BME280;60055;41.884;12.534;2023-12-07T05:20:39;101165.59;;;5.11;80.06
33414;BME280;60055;41.884;12.534;2023-12-07T05:23:05;101171.75;;;5.09;80.06
33414;BME280;60055;41.884;12.534;2023-12-07T05:25:31;101164.69;;;5.19;79.83
33414;BME280;60055;41.884;12.534;2023-12-07T05:27:57;101161.47;;;4.74;81.12
33414;BME280;60055;41.884;12.534;2023-12-07T05:30:23;101161.44;;;4.82;80.77
33414;BME280;60055;41.884;12.534;2023-12-07T05:32:48;101168.34;;;4.96;80.60
33414;BME280;60055;41.884;12.534;2023-12-07T05:35:14;101162.34;;;4.78;81.72
33414;BME280;60055;41.884;12.534;2023-12-07T05:37:39;101173.72;;;4.72;81.73
33414;BME280;60055;41.884;12.534;2023-12-07T05:40:05;101172.88;;;4.56;82.39
33414;BME280;60055;41.884;12.534;2023-12-07T05:42:31;101176.34;;;4.68;83.54
33414;BME280;60055;41.884;12.534;2023-12-07T05:44:57;101171.06;;;4.80;81.93
33414;BME280;60055;41.884;12.534;2023-12-07T05:47:23;101174.56;;;4.74;82.07
33414;BME280;60055;41.884;12.534;2023-12-07T05:49:48;101179.75;;;4.77;81.71
33414;BME280;60055;41.884;12.534;2023-12-07T05:52:14;101177.16;;;4.79;81.96
33414;BME280;60055;41.884;12.534;2023-12-07T05:54:39;101177.94;;;4.94;80.95
33414;BME280;60055;41.884;12.534;2023-12-07T05:57:07;101185.81;;;4.88;81.27
33414;BME280;60055;41.884;12.534;2023-12-07T05:59:36;101191.97;;;4.81;81.36
33414;BME280;60055;41.884;12.534;2023-12-07T06:02:03;101197.25;;;4.69;82.20
33414;BME280;60055;41.884;12.534;2023-12-07T06:04:30;101192.91;;;4.70;82.39
33414;BME280;60055;41.884;12.534;2023-12-07T06:06:55;101200.69;;;4.79;82.02
33414;BME280;60055;41.884;12.534;2023-12-07T06:09:21;101205.03;;;4.81;81.70
33414;BME280;60055;41.884;12.534;2023-12-07T06:11:46;101209.38;;;4.84;81.32
33414;BME280;60055;41.884;12.534;2023-12-07T06:14:11;101210.22;;;4.90;81.11
33414;BME280;60055;41.884;12.534;2023-12-07T06:16:37;101213.75;;;4.89;80.61
33414;BME280;60055;41.884;12.534;2023-12-07T06:19:02;101219.88;;;4.81;81.25
33414;BME280;60055;41.884;12.534;2023-12-07T06:21:29;101220.66;;;4.99;83.53
33414;BME280;60055;41.884;12.534;2023-12-07T06:23:55;101226.75;;;4.98;80.71
33414;BME280;60055;41.884;12.534;2023-12-07T06:26:21;101223.22;;;5.07;80.90
33414;BME280;60055;41.884;12.534;2023-12-07T06:28:47;101227.66;;;4.91;81.04
33414;BME280;60055;41.884;12.534;2023-12-07T06:31:12;101231.22;;;4.83;81.20
33414;BME280;60055;41.884;12.534;2023-12-07T06:33:40;101233.78;;;4.92;82.74
33414;BME280;60055;41.884;12.534;2023-12-07T06:36:06;101233.78;;;4.93;81.61
33414;BME280;60055;41.884;12.534;2023-12-07T06:38:31;101241.56;;;5.02;82.44
33414;BME280;60055;41.884;12.534;2023-12-07T06:40:57;101238.16;;;4.85;81.26
33414;BME280;60055;41.884;12.534;2023-12-07T06:43:22;101234.66;;;4.89;81.23
33414;BME280;60055;41.884;12.534;2023-12-07T06:45:48;101233.81;;;4.86;81.12
33414;BME280;60055;41.884;12.534;2023-12-07T06:48:13;101236.47;;;4.74;81.62
33414;BME280;60055;41.884;12.534;2023-12-07T06:50:39;101239.03;;;4.87;81.25
33414;BME280;60055;41.884;12.534;2023-12-07T06:53:04;101239.94;;;4.83;81.18
33414;BME280;60055;41.884;12.534;2023-12-07T06:55:30;101238.16;;;4.84;81.65
33414;BME280;60055;41.884;12.534;2023-12-07T06:57:55;101240.78;;;4.85;81.40
33414;BME280;60055;41.884;12.534;2023-12-07T07:00:21;101246.91;;;4.78;81.85
33414;BME280;60055;41.884;12.534;2023-12-07T07:02:47;101242.53;;;4.86;81.71
33414;BME280;60055;41.884;12.534;2023-12-07T07:05:12;101241.59;;;4.99;81.27
33414;BME280;60055;41.884;12.534;2023-12-07T07:07:38;101249.44;;;4.99;80.91
33414;BME280;60055;41.884;12.534;2023-12-07T07:10:04;101253.78;;;4.97;81.60
33414;BME280;60055;41.884;12.534;2023-12-07T07:12:29;101255.44;;;5.20;80.48
33414;BME280;60055;41.884;12.534;2023-12-07T07:14:55;101255.44;;;5.18;80.75
33414;BME280;60055;41.884;12.534;2023-12-07T07:17:21;101264.94;;;5.36;79.85
33414;BME280;60055;41.884;12.534;2023-12-07T07:19:46;101258.84;;;5.32;79.81
33414;BME280;60055;41.884;12.534;2023-12-07T07:22:12;101257.00;;;5.48;79.94
33414;BME280;60055;41.884;12.534;2023-12-07T07:24:37;101264.00;;;5.47;79.51
33414;BME280;60055;41.884;12.534;2023-12-07T07:27:03;101263.78;;;5.76;79.32
33414;BME280;60055;41.884;12.534;2023-12-07T07:29:29;101275.97;;;5.86;78.50
33414;BME280;60055;41.884;12.534;2023-12-07T07:31:54;101274.00;;;6.09;78.30
33414;BME280;60055;41.884;12.534;2023-12-07T07:34:21;101270.34;;;6.26;77.49
33414;BME280;60055;41.884;12.534;2023-12-07T07:36:46;101272.91;;;6.35;77.34
33414;BME280;60055;41.884;12.534;2023-12-07T07:39:12;101271.94;;;6.45;76.84
33414;BME280;60055;41.884;12.534;2023-12-07T07:41:39;101268.06;;;6.76;76.21
33414;BME280;60055;41.884;12.534;2023-12-07T07:44:04;101269.50;;;7.00;75.66
33414;BME280;60055;41.884;12.534;2023-12-07T07:46:30;101270.75;;;6.72;75.86
33414;BME280;60055;41.884;12.534;2023-12-07T07:48:56;101276.00;;;6.70;75.53
33414;BME280;60055;41.884;12.534;2023-12-07T07:51:21;101268.06;;;6.78;75.28
33414;BME280;60055;41.884;12.534;2023-12-07T07:53:46;101277.47;;;6.94;75.04
33414;BME280;60055;41.884;12.534;2023-12-07T07:56:12;101273.13;;;6.91;74.96
33414;BME280;60055;41.884;12.534;2023-12-07T07:58:37;101273.88;;;7.01;74.71
33414;BME280;60055;41.884;12.534;2023-12-07T08:01:03;101281.00;;;6.91;74.92
33414;BME280;60055;41.884;12.534;2023-12-07T08:03:28;101282.63;;;7.01;75.08
33414;BME280;60055;41.884;12.534;2023-12-07T08:05:54;101281.75;;;7.02;74.68
33414;BME280;60055;41.884;12.534;2023-12-07T08:08:19;101286.88;;;7.13;74.74
33414;BME280;60055;41.884;12.534;2023-12-07T08:10:45;101290.28;;;7.19;74.16
33414;BME280;60055;41.884;12.534;2023-12-07T08:13:10;101284.91;;;7.29;73.84
33414;BME280;60055;41.884;12.534;2023-12-07T08:15:35;101289.72;;;7.57;73.42
33414;BME280;60055;41.884;12.534;2023-12-07T08:18:01;101289.19;;;7.92;72.34
33414;BME280;60055;41.884;12.534;2023-12-07T08:20:27;101293.06;;;7.70;72.61
33414;BME280;60055;41.884;12.534;2023-12-07T08:22:52;101299.06;;;7.78;72.08
33414;BME280;60055;41.884;12.534;2023-12-07T08:25:18;101294.56;;;7.85;72.34
33414;BME280;60055;41.884;12.534;2023-12-07T08:27:44;101300.38;;;8.05;71.81
33414;BME280;60055;41.884;12.534;2023-12-07T08:30:11;101302.38;;;7.91;71.54
33414;BME280;60055;41.884;12.534;2023-12-07T08:32:38;101301.09;;;8.14;71.43
33414;BME280;60055;41.884;12.534;2023-12-07T08:35:04;101309.06;;;8.10;71.65
33414;BME280;60055;41.884;12.534;2023-12-07T08:37:33;101300.69;;;7.87;72.33
33414;BME280;60055;41.884;12.534;2023-12-07T08:39:59;101309.66;;;7.72;72.52
33414;BME280;60055;41.884;12.534;2023-12-07T08:42:24;101319.50;;;8.14;71.81
33414;BME280;60055;41.884;12.534;2023-12-07T08:44:52;101317.75;;;8.15;71.85
33414;BME280;60055;41.884;12.534;2023-12-07T08:47:17;101320.03;;;8.36;71.00
33414;BME280;60055;41.884;12.534;2023-12-07T08:49:42;101322.41;;;8.51;70.33
33414;BME280;60055;41.884;12.534;2023-12-07T08:52:08;101333.84;;;8.49;70.64
33414;BME280;60055;41.884;12.534;2023-12-07T08:54:33;101333.91;;;8.46;70.54
33414;BME280;60055;41.884;12.534;2023-12-07T08:57:01;101325.75;;;8.59;70.02
33414;BME280;60055;41.884;12.534;2023-12-07T08:59:26;101330.09;;;8.63;69.79
33414;BME280;60055;41.884;12.534;2023-12-07T09:01:52;101324.88;;;8.60;70.35
33414;BME280;60055;41.884;12.534;2023-12-07T09:04:17;101336.63;;;8.41;70.20
33414;BME280;60055;41.884;12.534;2023-12-07T09:06:43;101331.34;;;8.43;70.18
33414;BME280;60055;41.884;12.534;2023-12-07T09:09:08;101326.31;;;8.78;70.44
33414;BME280;60055;41.884;12.534;2023-12-07T09:11:33;101335.66;;;8.47;70.28
33414;BME280;60055;41.884;12.534;2023-12-07T09:13:59;101331.56;;;8.78;69.47
33414;BME280;60055;41.884;12.534;2023-12-07T09:16:26;101333.44;;;8.71;70.74
33414;BME280;60055;41.884;12.534;2023-12-07T09:18:51;101325.44;;;8.78;69.50
33414;BME280;60055;41.884;12.534;2023-12-07T09:21:17;101325.09;;;8.94;70.07
33414;BME280;60055;41.884;12.534;2023-12-07T09:23:42;101318.69;;;9.07;69.04
33414;BME280;60055;41.884;12.534;2023-12-07T09:26:08;101325.03;;;8.99;69.13
33414;BME280;60055;41.884;12.534;2023-12-07T09:28:33;101326.72;;;9.01;69.20
33414;BME280;60055;41.884;12.534;2023-12-07T09:30:59;101323.16;;;9.02;69.34
33414;BME280;60055;41.884;12.534;2023-12-07T09:33:24;101322.16;;;9.09;69.34
33414;BME280;60055;41.884;12.534;2023-12-07T09:35:50;101325.50;;;9.17;68.97
33414;BME280;60055;41.884;12.534;2023-12-07T09:38:16;101321.34;;;9.06;69.51
33414;BME280;60055;41.884;12.534;2023-12-07T09:40:42;101326.78;;;8.98;69.78
33414;BME280;60055;41.884;12.534;2023-12-07T09:43:07;101321.72;;;9.31;69.57
33414;BME280;60055;41.884;12.534;2023-12-07T09:45:33;101324.75;;;9.12;69.20
33414;BME280;60055;41.884;12.534;2023-12-07T09:47:59;101318.41;;;9.21;69.51
33414;BME280;60055;41.884;12.534;2023-12-07T09:50:26;101314.97;;;9.17;69.22
33414;BME280;60055;41.884;12.534;2023-12-07T09:52:57;101328.84;;;9.26;69.13
33414;BME280;60055;41.884;12.534;2023-12-07T09:55:23;101323.81;;;9.13;69.08
33414;BME280;60055;41.884;12.534;2023-12-07T09:57:50;101327.53;;;9.03;69.28
33414;BME280;60055;41.884;12.534;2023-12-07T10:00:16;101318.88;;;8.98;69.46
33414;BME280;60055;41.884;12.534;2023-12-07T10:02:44;101312.63;;;9.04;69.28
33414;BME280;60055;41.884;12.534;2023-12-07T10:05:11;101321.13;;;9.16;69.63
33414;BME280;60055;41.884;12.534;2023-12-07T10:07:49;101321.91;;;9.21;68.88
33414;BME280;60055;41.884;12.534;2023-12-07T10:10:16;101324.19;;;9.37;69.36
33414;BME280;60055;41.884;12.534;2023-12-07T10:12:53;101329.16;;;9.52;68.62
33414;BME280;60055;41.884;12.534;2023-12-07T10:15:20;101322.31;;;9.43;68.40
33414;BME280;60055;41.884;12.534;2023-12-07T10:17:54;101323.53;;;9.29;68.51
33414;BME280;60055;41.884;12.534;2023-12-07T10:20:22;101316.19;;;9.43;67.72
33414;BME280;60055;41.884;12.534;2023-12-07T10:23:10;101319.28;;;9.61;67.38
33414;BME280;60055;41.884;12.534;2023-12-07T10:25:41;101329.16;;;9.52;68.08
33414;BME280;60055;41.884;12.534;2023-12-07T10:28:08;101331.72;;;9.55;68.29
33414;BME280;60055;41.884;12.534;2023-12-07T10:30:37;101326.56;;;9.87;68.96
33414;BME280;60055;41.884;12.534;2023-12-07T10:33:08;101330.41;;;9.74;67.17
33414;BME280;60055;41.884;12.534;2023-12-07T10:35:39;101324.06;;;9.83;66.36
33414;BME280;60055;41.884;12.534;2023-12-07T10:38:06;101320.84;;;10.07;65.37
33414;BME280;60055;41.884;12.534;2023-12-07T10:40:32;101321.34;;;9.86;66.18
33414;BME280;60055;41.884;12.534;2023-12-07T10:43:03;101319.44;;;9.92;66.07
33414;BME280;60055;41.884;12.534;2023-12-07T10:45:31;101317.50;;;9.99;66.79
33414;BME280;60055;41.884;12.534;2023-12-07T10:48:03;101326.56;;;9.87;66.00
33414;BME280;60055;41.884;12.534;2023-12-07T10:50:38;101323.38;;;9.74;66.24
33414;BME280;60055;41.884;12.534;2023-12-07T10:53:40;101310.56;;;9.95;65.40
33414;BME280;60055;41.884;12.534;2023-12-07T10:56:16;101308.97;;;9.89;65.06
33414;BME280;60055;41.884;12.534;2023-12-07T10:58:47;101311.09;;;10.10;66.32
33414;BME280;60055;41.884;12.534;2023-12-07T11:01:15;101306.50;;;9.80;65.58
33414;BME280;60055;41.884;12.534;2023-12-07T11:03:43;101311.50;;;9.92;65.94
33414;BME280;60055;41.884;12.534;2023-12-07T11:06:09;101310.31;;;10.05;66.55
33414;BME280;60055;41.884;12.534;2023-12-07T11:08:46;101312.75;;;10.14;65.99
33414;BME280;60055;41.884;12.534;2023-12-07T11:11:31;101306.56;;;10.17;65.43
33414;BME280;60055;41.884;12.534;2023-12-07T11:14:04;101299.47;;;10.17;65.50
33414;BME280;60055;41.884;12.534;2023-12-07T11:16:39;101299.53;;;10.16;65.60
33414;BME280;60055;41.884;12.534;2023-12-07T11:19:42;101295.91;;;10.20;65.87
33414;BME280;60055;41.884;12.534;2023-12-07T11:22:13;101298.59;;;10.18;65.65
33414;BME280;60055;41.884;12.534;2023-12-07T11:25:05;101303.63;;;10.27;65.75
33414;BME280;60055;41.884;12.534;2023-12-07T11:27:32;101302.16;;;10.16;66.86
33414;BME280;60055;41.884;12.534;2023-12-07T11:29:59;101294.25;;;10.16;66.83
33414;BME280;60055;41.884;12.534;2023-12-07T11:32:28;101286.22;;;10.20;67.14
33414;BME280;60055;41.884;12.534;2023-12-07T11:34:58;101275.59;;;10.23;66.97
33414;BME280;60055;41.884;12.534;2023-12-07T11:38:03;101282.56;;;10.24;67.68
33414;BME280;60055;41.884;12.534;2023-12-07T11:40:33;101267.41;;;10.65;67.06
33414;BME280;60055;41.884;12.534;2023-12-07T11:43:00;101262.31;;;10.59;66.01
33414;BME280;60055;41.884;12.534;2023-12-07T11:46:01;101255.06;;;10.96;65.18
33414;BME280;60055;41.884;12.534;2023-12-07T11:48:28;101257.25;;;10.82;65.14
33414;BME280;60055;41.884;12.534;2023-12-07T11:51:07;101260.31;;;10.98;65.18
33414;BME280;60055;41.884;12.534;2023-12-07T11:53:38;101256.44;;;10.80;63.91
33414;BME280;60055;41.884;12.534;2023-12-07T11:56:08;101251.09;;;10.82;64.13
33414;BME280;60055;41.884;12.534;2023-12-07T11:58:36;101244.59;;;10.93;62.91
33414;BME280;60055;41.884;12.534;2023-12-07T12:01:03;101242.31;;;11.10;62.61
33414;BME280;60055;41.884;12.534;2023-12-07T12:03:32;101242.88;;;11.21;63.04
33414;BME280;60055;41.884;12.534;2023-12-07T12:05:59;101243.75;;;11.22;61.94
33414;BME280;60055;41.884;12.534;2023-12-07T12:08:25;101247.13;;;11.25;60.54
33414;BME280;60055;41.884;12.534;2023-12-07T12:10:53;101239.59;;;11.13;61.04
33414;BME280;60055;41.884;12.534;2023-12-07T12:13:29;101240.31;;;11.18;60.80
33414;BME280;60055;41.884;12.534;2023-12-07T12:15:58;101240.22;;;11.49;60.85
33414;BME280;60055;41.884;12.534;2023-12-07T12:18:25;101222.97;;;11.38;60.41
33414;BME280;60055;41.884;12.534;2023-12-07T12:20:51;101230.72;;;11.44;60.30
33414;BME280;60055;41.884;12.534;2023-12-07T12:23:17;101219.25;;;11.43;59.43
33414;BME280;60055;41.884;12.534;2023-12-07T12:25:45;101214.03;;;11.42;60.21
33414;BME280;60055;41.884;12.534;2023-12-07T12:28:18;101215.16;;;11.61;59.33
33414;BME280;60055;41.884;12.534;2023-12-07T12:30:48;101214.78;;;11.73;59.78
33414;BME280;60055;41.884;12.534;2023-12-07T12:33:14;101210.66;;;11.64;58.71
33414;BME280;60055;41.884;12.534;2023-12-07T12:35:41;101203.09;;;11.80;58.98
33414;BME280;60055;41.884;12.534;2023-12-07T12:38:11;101197.91;;;11.77;58.66
33414;BME280;60055;41.884;12.534;2023-12-07T12:40:38;101204.59;;;11.61;59.62
33414;BME280;60055;41.884;12.534;2023-12-07T12:43:07;101196.53;;;11.65;59.87
33414;BME280;60055;41.884;12.534;2023-12-07T12:45:33;101202.84;;;11.60;58.76
33414;BME280;60055;41.884;12.534;2023-12-07T12:47:59;101197.69;;;11.83;58.37
33414;BME280;60055;41.884;12.534;2023-12-07T12:50:37;101196.78;;;11.84;57.84